Terminal Aerodrome Forecast
Issued by NWS

Home | Current Version | Previous Version | Graphics & Text | Print | Product List | Glossary On
Versions: 1 2 3 4 5 6 7 8 9 10 11 12 13 14 15 16 17 18 19 20 21 22 23 24 25 26
633
FTUS43 KABR 201709 AAC
TAFMBG
TAF AMD
KMBG 201709Z 2017/2112 29014G20KT P6SM SCT080
      TEMPO 2017/2019 3SM BR SCT009 BKN100
     FM202100 28012KT P6SM FEW200
     FM210000 27008KT P6SM FEW150
     FM210200 18006KT P6SM FEW200=

USA.gov is the U.S. government's official web portal to all federal, state and local government web resources and services.